Time;durP1;ratioP1;P1;durP2;ratioP2;P2;SDS_P1;SDS_P2;PMS_P1;PMS_P2;Temp;Humidity;BMP_temperature;BMP_pressure;BME280_temperature;BME280_humidity;BME280_pressure;Samples;Min_cycle;Max_cycle;Signal;HPM_P1;HPM_P2
2023/08/17 00:04:31;;;;;;;12;6.2;;;;;;;22.38;74.78;;;;;
2023/08/17 00:14:31;;;;;;;12;6.2;;;;;;;22.33;75.72;;;;;
2023/08/17 00:24:31;;;;;;;8.2;6.6;;;;;;;22.24;76.32;;;;;
2023/08/17 00:34:31;;;;;;;8.2;6.6;;;;;;;22.15;77.63;;;;;
2023/08/17 00:45:31;;;;;;;8.2;6.6;;;;;;;22.04;78.27;;;;;
2023/08/17 00:55:31;;;;;;;12;8.6;;;;;;;21.88;78.99;;;;;
2023/08/17 01:05:32;;;;;;;12;8.6;;;;;;;21.74;78.54;;;;;
2023/08/17 01:16:31;;;;;;;12;8.6;;;;;;;21.65;77.94;;;;;
2023/08/17 01:26:31;;;;;;;12.3;7.4;;;;;;;21.48;78.4;;;;;
2023/08/17 01:36:31;;;;;;;12.3;7.4;;;;;;;21.46;79.27;;;;;
2023/08/17 01:47:31;;;;;;;12.3;7.4;;;;;;;21.31;78.22;;;;;
2023/08/17 01:57:31;;;;;;;10.1;7.7;;;;;;;21.15;78.54;;;;;
2023/08/17 02:08:31;;;;;;;10.1;7.7;;;;;;;20.95;79.48;;;;;
2023/08/17 02:18:33;;;;;;;10.1;7.7;;;;;;;20.83;79.51;;;;;
2023/08/17 02:28:31;;;;;;;10.1;7.3;;;;;;;20.71;80.02;;;;;
2023/08/17 02:38:31;;;;;;;10.1;7.3;;;;;;;20.58;80.85;;;;;
2023/08/17 02:49:31;;;;;;;10.1;7.3;;;;;;;20.57;80.96;;;;;
2023/08/17 03:00:32;;;;;;;12.3;7.2;;;;;;;20.54;83.03;;;;;
2023/08/17 03:11:31;;;;;;;12.3;7.2;;;;;;;20.49;83.09;;;;;
2023/08/17 03:22:31;;;;;;;12.3;7.2;;;;;;;20.43;83.71;;;;;
2023/08/17 03:32:34;;;;;;;13.4;8.2;;;;;;;20.55;83.56;;;;;
2023/08/17 03:43:32;;;;;;;13.4;8.2;;;;;;;20.62;83.7;;;;;
2023/08/17 03:54:32;;;;;;;13.2;9.3;;;;;;;20.54;84.74;;;;;
2023/08/17 04:05:32;;;;;;;13.2;9.3;;;;;;;20.59;83.67;;;;;
2023/08/17 04:16:32;;;;;;;13.2;9.3;;;;;;;20.71;82.7;;;;;
2023/08/17 04:26:32;;;;;;;13.2;9.6;;;;;;;20.91;82.39;;;;;
2023/08/17 04:37:32;;;;;;;13.2;9.6;;;;;;;21.2;82;;;;;
2023/08/17 04:47:32;;;;;;;13.2;9.6;;;;;;;21.31;82.23;;;;;
2023/08/17 04:57:32;;;;;;;16.5;9.7;;;;;;;21.41;81.45;;;;;
2023/08/17 05:08:32;;;;;;;16.5;9.7;;;;;;;21.81;81.06;;;;;
2023/08/17 05:18:32;;;;;;;16.5;9.7;;;;;;;22;80.37;;;;;
2023/08/17 05:29:32;;;;;;;12.2;9.1;;;;;;;22.33;80.36;;;;;
2023/08/17 05:39:32;;;;;;;12.2;9.1;;;;;;;22.54;80.03;;;;;
2023/08/17 05:50:32;;;;;;;12.2;9.1;;;;;;;22.79;79.11;;;;;
2023/08/17 06:01:32;;;;;;;12.2;9.2;;;;;;;22.89;77.81;;;;;
2023/08/17 06:12:32;;;;;;;12.2;9.2;;;;;;;23.44;77.09;;;;;
2023/08/17 06:23:32;;;;;;;12.2;9.2;;;;;;;24.09;73.91;;;;;
2023/08/17 06:33:32;;;;;;;11.4;8.2;;;;;;;24.82;71.31;;;;;
2023/08/17 06:44:32;;;;;;;11.4;8.2;;;;;;;25.27;67.92;;;;;
2023/08/17 06:55:32;;;;;;;10.5;7.1;;;;;;;25.57;68.48;;;;;
2023/08/17 07:06:32;;;;;;;10.5;7.1;;;;;;;25.72;67.17;;;;;
2023/08/17 07:16:32;;;;;;;10.5;7.1;;;;;;;25.95;66.45;;;;;
2023/08/17 07:27:32;;;;;;;11.1;8.4;;;;;;;25.8;65.58;;;;;
2023/08/17 07:37:33;;;;;;;11.1;8.4;;;;;;;25.73;69.28;;;;;
2023/08/17 07:48:33;;;;;;;11.1;8.4;;;;;;;26.09;66.26;;;;;
2023/08/17 07:58:32;;;;;;;14.5;8.4;;;;;;;26.39;65.23;;;;;
2023/08/17 08:09:32;;;;;;;14.5;8.4;;;;;;;26.97;63.87;;;;;
2023/08/17 08:19:32;;;;;;;14.5;8.4;;;;;;;27.23;63.19;;;;;
2023/08/17 08:30:33;;;;;;;12.3;8;;;;;;;27.23;61.4;;;;;
2023/08/17 08:40:32;;;;;;;12.3;8;;;;;;;27.94;62.56;;;;;
2023/08/17 08:51:33;;;;;;;12.3;8;;;;;;;27.93;58.76;;;;;
2023/08/17 09:01:32;;;;;;;14.7;8.5;;;;;;;28.22;58.64;;;;;
2023/08/17 09:11:32;;;;;;;14.7;8.5;;;;;;;28.55;59.19;;;;;
2023/08/17 09:22:32;;;;;;;14.7;8.5;;;;;;;28.39;58.1;;;;;
2023/08/17 09:33:32;;;;;;;12.7;7.1;;;;;;;28.57;57.93;;;;;
2023/08/17 09:43:33;;;;;;;12.7;7.1;;;;;;;29.08;56.41;;;;;
2023/08/17 09:54:32;;;;;;;10.8;6.8;;;;;;;29.14;56.38;;;;;
2023/08/17 10:04:32;;;;;;;10.8;6.8;;;;;;;29.59;55.96;;;;;
2023/08/17 10:15:32;;;;;;;10.8;6.8;;;;;;;28.44;56.34;;;;;
2023/08/17 10:26:32;;;;;;;10.6;5.7;;;;;;;28.3;56.36;;;;;
2023/08/17 10:37:32;;;;;;;10.6;5.7;;;;;;;28.62;56.21;;;;;
2023/08/17 10:47:32;;;;;;;10.6;5.7;;;;;;;28.69;58.92;;;;;
2023/08/17 10:58:32;;;;;;;11.9;5.7;;;;;;;28.51;62.84;;;;;
2023/08/17 11:08:32;;;;;;;11.9;5.7;;;;;;;28.01;57.36;;;;;
2023/08/17 11:19:32;;;;;;;11.9;5.7;;;;;;;27.25;55.25;;;;;
2023/08/17 11:30:34;;;;;;;8.1;4.2;;;;;;;27.31;55.18;;;;;
2023/08/17 11:41:32;;;;;;;8.1;4.2;;;;;;;28.13;54.66;;;;;
2023/08/17 11:51:32;;;;;;;8.1;4.2;;;;;;;28.23;53.43;;;;;
2023/08/17 12:02:37;;;;;;;5.5;2.6;;;;;;;27.52;55.46;;;;;
2023/08/17 12:13:32;;;;;;;5.5;2.6;;;;;;;26.27;59.95;;;;;
2023/08/17 12:23:32;;;;;;;5.5;2.6;;;;;;;25.34;59.29;;;;;
2023/08/17 12:34:32;;;;;;;6;2.6;;;;;;;23.73;65.12;;;;;
2023/08/17 14:34:25;;;;;;;7;3.9;;;;;;;23.97;75.69;;;;;
2023/08/17 14:44:25;;;;;;;5.5;2.8;;;;;;;24.15;75.98;;;;;
2023/08/17 14:54:25;;;;;;;5.5;2.8;;;;;;;24.49;73.35;;;;;
2023/08/17 15:04:25;;;;;;;5.5;2.8;;;;;;;24.51;71.11;;;;;
2023/08/17 15:15:25;;;;;;;4.8;2.4;;;;;;;24.1;71.9;;;;;
2023/08/17 15:25:25;;;;;;;4.8;2.4;;;;;;;23.85;71.98;;;;;
2023/08/17 15:35:25;;;;;;;4.8;2.4;;;;;;;23.6;73.72;;;;;
2023/08/17 15:45:25;;;;;;;6.7;3.4;;;;;;;23.28;73.57;;;;;
2023/08/17 15:56:25;;;;;;;6.7;3.4;;;;;;;22.8;72.6;;;;;
2023/08/17 16:06:25;;;;;;;6.7;3.4;;;;;;;22.29;73.41;;;;;
2023/08/17 16:17:25;;;;;;;5.4;2.9;;;;;;;21.24;78.3;;;;;
2023/08/17 16:28:25;;;;;;;5.4;2.9;;;;;;;20.68;80.91;;;;;
2023/08/17 16:39:27;;;;;;;5.4;2.9;;;;;;;20.65;82.43;;;;;
2023/08/17 16:49:25;;;;;;;5.9;3.4;;;;;;;20.62;83.87;;;;;
2023/08/17 16:59:25;;;;;;;5.9;3.4;;;;;;;20.26;86.08;;;;;
2023/08/17 17:09:26;;;;;;;5.9;3.4;;;;;;;20.49;84.56;;;;;
2023/08/17 17:20:25;;;;;;;8.9;4.9;;;;;;;20.4;85.34;;;;;
2023/08/17 17:30:25;;;;;;;8.9;4.9;;;;;;;20.21;87.1;;;;;
2023/08/17 17:40:25;;;;;;;8.9;4.9;;;;;;;20.26;87.1;;;;;
2023/08/17 17:51:25;;;;;;;6.8;4.2;;;;;;;19.98;88.11;;;;;
2023/08/17 18:01:25;;;;;;;6.8;4.2;;;;;;;19.84;87.78;;;;;
2023/08/17 18:12:26;;;;;;;6.8;4.2;;;;;;;19.63;87.91;;;;;
2023/08/17 18:22:25;;;;;;;7.5;4.6;;;;;;;19.62;87.39;;;;;
2023/08/17 18:33:25;;;;;;;7.5;4.6;;;;;;;19.68;87.42;;;;;
2023/08/17 18:43:26;;;;;;;7.5;4.6;;;;;;;19.8;87;;;;;
2023/08/17 18:53:26;;;;;;;8.4;5.2;;;;;;;19.93;86.49;;;;;
2023/08/17 19:04:25;;;;;;;8.4;5.2;;;;;;;19.69;87.54;;;;;
2023/08/17 19:15:25;;;;;;;8.4;5.7;;;;;;;19.69;87.28;;;;;
2023/08/17 19:25:25;;;;;;;8.4;5.7;;;;;;;19.81;86.94;;;;;
2023/08/17 19:35:26;;;;;;;8.4;5.7;;;;;;;19.82;86.98;;;;;
2023/08/17 19:46:25;;;;;;;7.9;4.8;;;;;;;19.92;86.52;;;;;
2023/08/17 19:57:25;;;;;;;7.9;4.8;;;;;;;19.89;86.39;;;;;
2023/08/17 20:07:25;;;;;;;7.9;4.8;;;;;;;20.02;86.25;;;;;
2023/08/17 20:17:25;;;;;;;6.9;4.5;;;;;;;19.94;86.68;;;;;
2023/08/17 20:27:26;;;;;;;6.9;4.5;;;;;;;19.83;87.11;;;;;
2023/08/17 20:38:25;;;;;;;6.9;4.5;;;;;;;19.89;86.94;;;;;
2023/08/17 20:48:25;;;;;;;7.5;5;;;;;;;19.81;86.87;;;;;
2023/08/17 20:58:26;;;;;;;7.5;5;;;;;;;19.65;87.97;;;;;
2023/08/17 21:09:27;;;;;;;7.5;5;;;;;;;19.64;87.9;;;;;
2023/08/17 21:20:29;;;;;;;8.5;5.6;;;;;;;19.57;88.12;;;;;
2023/08/17 21:30:27;;;;;;;8.5;5.6;;;;;;;19.65;87.88;;;;;
2023/08/17 21:41:25;;;;;;;8.5;5.6;;;;;;;19.57;88.5;;;;;
2023/08/17 21:51:25;;;;;;;7.4;5.1;;;;;;;19.66;88.06;;;;;
2023/08/17 22:02:26;;;;;;;7.4;5.1;;;;;;;19.69;88.24;;;;;
2023/08/17 22:13:25;;;;;;;7.4;5.1;;;;;;;19.44;89.25;;;;;
2023/08/17 22:23:26;;;;;;;8.6;5.4;;;;;;;19.48;89.35;;;;;
2023/08/17 22:34:25;;;;;;;8.6;5.4;;;;;;;19.39;89.61;;;;;
2023/08/17 22:44:26;;;;;;;9.3;5.7;;;;;;;19.63;89.25;;;;;
2023/08/17 22:54:26;;;;;;;9.3;5.7;;;;;;;19.72;88.75;;;;;
2023/08/17 23:05:27;;;;;;;9.3;5.7;;;;;;;19.77;88.25;;;;;
2023/08/17 23:15:26;;;;;;;8.9;5.5;;;;;;;19.58;88.61;;;;;
2023/08/17 23:25:26;;;;;;;8.9;5.5;;;;;;;19.63;88.45;;;;;
2023/08/17 23:36:26;;;;;;;8.9;5.5;;;;;;;19.38;88.65;;;;;
2023/08/17 23:47:26;;;;;;;8.7;5.5;;;;;;;19.24;88.05;;;;;
2023/08/17 23:57:26;;;;;;;8.7;5.5;;;;;;;19.23;88.03;;;;;
